CYZH

Slave Lake Airport

Slave Lake, Alberta, Canada
METAR CYZH 241900Z AUTO 31004KT 9SM -SN OVC024 M06/M09 A2963 RMK SLP068
Observed Flight Rules
Feb-24 @ 19:00 UTC (an hour ago) Marginal Visual Flight Rules
Wind Visibility Clouds Conditions
310° at 4 knots 9 miles
  • Overcast at 2,400' AGL
  • Light Snow
Temperatures Readings
Current -6°C / 21°F
Dewpoint -9°C / 16°F
Humidity 80%
Altimeter 29.63" Hg
Pressure 1006.8 hPa
Elevation 581
METAR CYZH 241900Z AUTO 31004KT 9SM -SN OVC024 M06/M09 A2963 RMK SLP068
Observed Flight Rules
Feb-24 @ 19:00 UTC
(an hour ago)
MVFR
Wind Visibility
310° at 4 knots 9 miles
Clouds
  • Overcast at 2,400' AGL
Conditions
  • Light Snow
Temperature Dewpoint
-6°C / 21°F -9°C / 16°F
Humidity Altimeter Pressure
80% 29.63" Hg 1006.8 hPa